sensor_id;sensor_type;location;lat;lon;timestamp;P1;durP1;ratioP1;P2;durP2;ratioP2
14019;SDS011;7085;51.428;6.796;2023-01-08T00:00:06;2.17;;;1.70;;
14019;SDS011;7085;51.428;6.796;2023-01-08T00:02:33;1.30;;;1.20;;
14019;SDS011;7085;51.428;6.796;2023-01-08T00:05:00;2.03;;;1.50;;
14019;SDS011;7085;51.428;6.796;2023-01-08T00:07:28;1.40;;;1.30;;
14019;SDS011;7085;51.428;6.796;2023-01-08T00:09:55;2.53;;;1.38;;
14019;SDS011;7085;51.428;6.796;2023-01-08T00:12:22;1.50;;;1.10;;
14019;SDS011;7085;51.428;6.796;2023-01-08T00:14:49;2.00;;;1.15;;
14019;SDS011;7085;51.428;6.796;2023-01-08T00:17:16;9.32;;;1.58;;
14019;SDS011;7085;51.428;6.796;2023-01-08T00:19:44;1.92;;;1.52;;
14019;SDS011;7085;51.428;6.796;2023-01-08T00:22:11;1.73;;;1.23;;
14019;SDS011;7085;51.428;6.796;2023-01-08T00:24:39;1.60;;;1.50;;
14019;SDS011;7085;51.428;6.796;2023-01-08T00:27:06;1.00;;;1.00;;
14019;SDS011;7085;51.428;6.796;2023-01-08T00:29:33;1.42;;;1.33;;
14019;SDS011;7085;51.428;6.796;2023-01-08T00:32:01;1.40;;;1.25;;
14019;SDS011;7085;51.428;6.796;2023-01-08T00:34:28;1.63;;;1.30;;
14019;SDS011;7085;51.428;6.796;2023-01-08T00:36:55;1.13;;;1.13;;
14019;SDS011;7085;51.428;6.796;2023-01-08T00:39:22;1.70;;;1.27;;
14019;SDS011;7085;51.428;6.796;2023-01-08T00:41:50;1.80;;;1.30;;
14019;SDS011;7085;51.428;6.796;2023-01-08T00:44:18;1.40;;;1.30;;
14019;SDS011;7085;51.428;6.796;2023-01-08T00:46:45;1.25;;;1.15;;
14019;SDS011;7085;51.428;6.796;2023-01-08T00:49:12;1.20;;;1.10;;
14019;SDS011;7085;51.428;6.796;2023-01-08T00:51:39;1.30;;;1.20;;
14019;SDS011;7085;51.428;6.796;2023-01-08T00:54:06;2.60;;;1.48;;
14019;SDS011;7085;51.428;6.796;2023-01-08T00:56:33;1.92;;;1.17;;
14019;SDS011;7085;51.428;6.796;2023-01-08T00:59:01;1.25;;;1.13;;
14019;SDS011;7085;51.428;6.796;2023-01-08T01:01:28;1.80;;;1.60;;
14019;SDS011;7085;51.428;6.796;2023-01-08T01:03:56;1.20;;;1.10;;
14019;SDS011;7085;51.428;6.796;2023-01-08T01:06:23;1.45;;;1.35;;
14019;SDS011;7085;51.428;6.796;2023-01-08T01:08:50;1.25;;;1.10;;
14019;SDS011;7085;51.428;6.796;2023-01-08T01:11:17;1.10;;;1.00;;
14019;SDS011;7085;51.428;6.796;2023-01-08T01:13:45;1.67;;;1.30;;
14019;SDS011;7085;51.428;6.796;2023-01-08T01:16:13;1.70;;;1.30;;
14019;SDS011;7085;51.428;6.796;2023-01-08T01:18:40;1.50;;;1.40;;
14019;SDS011;7085;51.428;6.796;2023-01-08T01:21:08;1.42;;;1.33;;
14019;SDS011;7085;51.428;6.796;2023-01-08T01:23:36;2.05;;;1.25;;
14019;SDS011;7085;51.428;6.796;2023-01-08T01:26:03;2.17;;;1.02;;
14019;SDS011;7085;51.428;6.796;2023-01-08T01:28:30;1.10;;;1.05;;
14019;SDS011;7085;51.428;6.796;2023-01-08T01:30:57;1.33;;;1.23;;
14019;SDS011;7085;51.428;6.796;2023-01-08T01:33:25;1.30;;;1.20;;
14019;SDS011;7085;51.428;6.796;2023-01-08T01:36:00;2.08;;;1.00;;
14019;SDS011;7085;51.428;6.796;2023-01-08T01:38:27;1.65;;;1.23;;
14019;SDS011;7085;51.428;6.796;2023-01-08T01:40:54;4.07;;;1.92;;
14019;SDS011;7085;51.428;6.796;2023-01-08T01:43:37;1.85;;;1.30;;
14019;SDS011;7085;51.428;6.796;2023-01-08T01:46:05;1.15;;;1.05;;
14019;SDS011;7085;51.428;6.796;2023-01-08T01:48:41;2.58;;;1.33;;
14019;SDS011;7085;51.428;6.796;2023-01-08T01:51:09;1.08;;;1.08;;
14019;SDS011;7085;51.428;6.796;2023-01-08T01:53:36;1.83;;;1.60;;
14019;SDS011;7085;51.428;6.796;2023-01-08T01:56:05;1.67;;;1.27;;
14019;SDS011;7085;51.428;6.796;2023-01-08T01:58:33;1.50;;;1.40;;
14019;SDS011;7085;51.428;6.796;2023-01-08T02:01:01;1.25;;;1.15;;
14019;SDS011;7085;51.428;6.796;2023-01-08T02:03:29;2.25;;;1.40;;
14019;SDS011;7085;51.428;6.796;2023-01-08T02:05:59;1.40;;;1.30;;
14019;SDS011;7085;51.428;6.796;2023-01-08T02:08:27;3.15;;;1.60;;
14019;SDS011;7085;51.428;6.796;2023-01-08T02:11:01;1.88;;;1.40;;
14019;SDS011;7085;51.428;6.796;2023-01-08T02:13:33;2.10;;;1.30;;
14019;SDS011;7085;51.428;6.796;2023-01-08T02:16:03;2.03;;;1.33;;
14019;SDS011;7085;51.428;6.796;2023-01-08T02:18:33;1.45;;;1.27;;
14019;SDS011;7085;51.428;6.796;2023-01-08T02:21:04;1.83;;;1.30;;
14019;SDS011;7085;51.428;6.796;2023-01-08T02:23:36;2.03;;;1.33;;
14019;SDS011;7085;51.428;6.796;2023-01-08T02:26:13;1.65;;;1.48;;
14019;SDS011;7085;51.428;6.796;2023-01-08T02:28:42;1.35;;;1.15;;
14019;SDS011;7085;51.428;6.796;2023-01-08T02:31:10;1.42;;;1.33;;
14019;SDS011;7085;51.428;6.796;2023-01-08T02:33:38;1.52;;;1.40;;
14019;SDS011;7085;51.428;6.796;2023-01-08T02:36:19;1.80;;;1.70;;
14019;SDS011;7085;51.428;6.796;2023-01-08T02:38:49;2.22;;;1.73;;
14019;SDS011;7085;51.428;6.796;2023-01-08T02:41:20;2.45;;;1.45;;
14019;SDS011;7085;51.428;6.796;2023-01-08T02:43:49;2.15;;;1.85;;
14019;SDS011;7085;51.428;6.796;2023-01-08T02:46:18;2.78;;;1.65;;
14019;SDS011;7085;51.428;6.796;2023-01-08T02:48:46;1.67;;;1.58;;
14019;SDS011;7085;51.428;6.796;2023-01-08T02:51:15;2.22;;;1.67;;
14019;SDS011;7085;51.428;6.796;2023-01-08T02:53:43;1.75;;;1.60;;
14019;SDS011;7085;51.428;6.796;2023-01-08T02:56:12;2.63;;;1.90;;
14019;SDS011;7085;51.428;6.796;2023-01-08T02:58:41;3.33;;;1.70;;
14019;SDS011;7085;51.428;6.796;2023-01-08T03:01:10;3.30;;;2.00;;
14019;SDS011;7085;51.428;6.796;2023-01-08T03:03:38;2.13;;;1.48;;
14019;SDS011;7085;51.428;6.796;2023-01-08T03:06:08;2.65;;;1.35;;
14019;SDS011;7085;51.428;6.796;2023-01-08T03:08:36;1.50;;;1.40;;
14019;SDS011;7085;51.428;6.796;2023-01-08T03:11:05;1.77;;;1.55;;
14019;SDS011;7085;51.428;6.796;2023-01-08T03:13:33;2.13;;;1.60;;
14019;SDS011;7085;51.428;6.796;2023-01-08T03:16:05;1.45;;;1.30;;
14019;SDS011;7085;51.428;6.796;2023-01-08T03:18:35;4.65;;;1.70;;
14019;SDS011;7085;51.428;6.796;2023-01-08T03:21:03;1.70;;;1.50;;
14019;SDS011;7085;51.428;6.796;2023-01-08T03:23:32;1.45;;;1.35;;
14019;SDS011;7085;51.428;6.796;2023-01-08T03:26:00;1.70;;;1.60;;
14019;SDS011;7085;51.428;6.796;2023-01-08T03:28:29;2.05;;;1.48;;
14019;SDS011;7085;51.428;6.796;2023-01-08T03:30:57;3.15;;;1.73;;
14019;SDS011;7085;51.428;6.796;2023-01-08T03:33:26;2.75;;;1.83;;
14019;SDS011;7085;51.428;6.796;2023-01-08T03:35:54;3.17;;;1.25;;
14019;SDS011;7085;51.428;6.796;2023-01-08T03:38:24;2.22;;;1.80;;
14019;SDS011;7085;51.428;6.796;2023-01-08T03:40:53;1.40;;;1.30;;
14019;SDS011;7085;51.428;6.796;2023-01-08T03:43:21;2.40;;;1.60;;
14019;SDS011;7085;51.428;6.796;2023-01-08T03:45:49;2.03;;;1.70;;
14019;SDS011;7085;51.428;6.796;2023-01-08T03:48:17;2.17;;;1.70;;
14019;SDS011;7085;51.428;6.796;2023-01-08T03:50:47;2.28;;;1.50;;
14019;SDS011;7085;51.428;6.796;2023-01-08T03:53:14;3.28;;;1.60;;
14019;SDS011;7085;51.428;6.796;2023-01-08T03:55:41;2.67;;;1.63;;
14019;SDS011;7085;51.428;6.796;2023-01-08T03:58:08;2.38;;;1.90;;
14019;SDS011;7085;51.428;6.796;2023-01-08T04:00:35;3.17;;;1.50;;
14019;SDS011;7085;51.428;6.796;2023-01-08T04:03:02;4.05;;;1.60;;
14019;SDS011;7085;51.428;6.796;2023-01-08T04:05:29;3.70;;;2.13;;
14019;SDS011;7085;51.428;6.796;2023-01-08T04:07:57;1.67;;;1.42;;
14019;SDS011;7085;51.428;6.796;2023-01-08T04:10:25;1.92;;;1.50;;
14019;SDS011;7085;51.428;6.796;2023-01-08T04:12:52;3.25;;;1.83;;
14019;SDS011;7085;51.428;6.796;2023-01-08T04:15:19;2.90;;;1.67;;
14019;SDS011;7085;51.428;6.796;2023-01-08T04:17:46;1.58;;;1.40;;
14019;SDS011;7085;51.428;6.796;2023-01-08T04:20:13;2.42;;;1.52;;
14019;SDS011;7085;51.428;6.796;2023-01-08T04:22:40;1.85;;;1.70;;
14019;SDS011;7085;51.428;6.796;2023-01-08T04:25:08;2.55;;;1.60;;
14019;SDS011;7085;51.428;6.796;2023-01-08T04:27:35;2.35;;;1.70;;
14019;SDS011;7085;51.428;6.796;2023-01-08T04:30:03;1.83;;;1.52;;
14019;SDS011;7085;51.428;6.796;2023-01-08T04:32:30;3.55;;;1.60;;
14019;SDS011;7085;51.428;6.796;2023-01-08T04:34:57;1.98;;;1.65;;
14019;SDS011;7085;51.428;6.796;2023-01-08T04:37:25;2.75;;;1.45;;
14019;SDS011;7085;51.428;6.796;2023-01-08T04:39:52;1.75;;;1.25;;
14019;SDS011;7085;51.428;6.796;2023-01-08T04:42:20;2.05;;;1.30;;
14019;SDS011;7085;51.428;6.796;2023-01-08T04:44:47;1.60;;;1.50;;
14019;SDS011;7085;51.428;6.796;2023-01-08T04:47:14;1.60;;;1.45;;
14019;SDS011;7085;51.428;6.796;2023-01-08T04:49:41;1.40;;;1.30;;
14019;SDS011;7085;51.428;6.796;2023-01-08T04:52:08;1.85;;;1.52;;
14019;SDS011;7085;51.428;6.796;2023-01-08T04:54:35;2.50;;;1.50;;
14019;SDS011;7085;51.428;6.796;2023-01-08T04:57:02;1.75;;;1.40;;
14019;SDS011;7085;51.428;6.796;2023-01-08T04:59:31;1.60;;;1.40;;
14019;SDS011;7085;51.428;6.796;2023-01-08T05:01:58;1.88;;;1.33;;
14019;SDS011;7085;51.428;6.796;2023-01-08T05:04:25;1.70;;;1.15;;
14019;SDS011;7085;51.428;6.796;2023-01-08T05:06:52;1.63;;;1.50;;
14019;SDS011;7085;51.428;6.796;2023-01-08T05:09:19;1.63;;;1.20;;
14019;SDS011;7085;51.428;6.796;2023-01-08T05:11:46;2.13;;;1.33;;
14019;SDS011;7085;51.428;6.796;2023-01-08T05:14:13;2.65;;;1.70;;
14019;SDS011;7085;51.428;6.796;2023-01-08T05:16:42;2.08;;;1.13;;
14019;SDS011;7085;51.428;6.796;2023-01-08T05:19:09;1.40;;;1.30;;
14019;SDS011;7085;51.428;6.796;2023-01-08T05:21:36;1.20;;;1.10;;
14019;SDS011;7085;51.428;6.796;2023-01-08T05:24:03;1.95;;;1.55;;
14019;SDS011;7085;51.428;6.796;2023-01-08T05:26:30;2.20;;;1.33;;
14019;SDS011;7085;51.428;6.796;2023-01-08T05:28:57;1.55;;;1.10;;
14019;SDS011;7085;51.428;6.796;2023-01-08T05:31:24;2.03;;;1.23;;
14019;SDS011;7085;51.428;6.796;2023-01-08T05:33:52;1.88;;;1.30;;
14019;SDS011;7085;51.428;6.796;2023-01-08T05:36:19;1.52;;;1.23;;
14019;SDS011;7085;51.428;6.796;2023-01-08T05:38:46;2.90;;;1.33;;
14019;SDS011;7085;51.428;6.796;2023-01-08T05:41:13;1.02;;;1.00;;
14019;SDS011;7085;51.428;6.796;2023-01-08T05:43:40;1.15;;;1.13;;
14019;SDS011;7085;51.428;6.796;2023-01-08T05:46:07;2.80;;;1.30;;
14019;SDS011;7085;51.428;6.796;2023-01-08T05:48:35;1.27;;;1.20;;
14019;SDS011;7085;51.428;6.796;2023-01-08T05:51:04;1.40;;;1.10;;
14019;SDS011;7085;51.428;6.796;2023-01-08T05:53:31;1.30;;;1.20;;
14019;SDS011;7085;51.428;6.796;2023-01-08T05:55:58;2.28;;;1.30;;
14019;SDS011;7085;51.428;6.796;2023-01-08T05:58:25;1.95;;;1.10;;
14019;SDS011;7085;51.428;6.796;2023-01-08T06:00:52;2.30;;;1.17;;
14019;SDS011;7085;51.428;6.796;2023-01-08T06:03:20;1.67;;;1.05;;
14019;SDS011;7085;51.428;6.796;2023-01-08T06:05:47;1.80;;;0.95;;
14019;SDS011;7085;51.428;6.796;2023-01-08T06:08:15;1.70;;;0.90;;
14019;SDS011;7085;51.428;6.796;2023-01-08T06:10:42;1.77;;;0.85;;
14019;SDS011;7085;51.428;6.796;2023-01-08T06:13:09;1.20;;;0.82;;
14019;SDS011;7085;51.428;6.796;2023-01-08T06:15:36;2.22;;;0.82;;
14019;SDS011;7085;51.428;6.796;2023-01-08T06:18:04;0.80;;;0.80;;
14019;SDS011;7085;51.428;6.796;2023-01-08T06:20:31;0.60;;;0.60;;
14019;SDS011;7085;51.428;6.796;2023-01-08T06:22:58;0.60;;;0.60;;
14019;SDS011;7085;51.428;6.796;2023-01-08T06:25:26;0.75;;;0.70;;
14019;SDS011;7085;51.428;6.796;2023-01-08T06:27:54;1.05;;;0.60;;
14019;SDS011;7085;51.428;6.796;2023-01-08T06:30:21;2.25;;;0.65;;
14019;SDS011;7085;51.428;6.796;2023-01-08T06:32:48;1.95;;;0.75;;
14019;SDS011;7085;51.428;6.796;2023-01-08T06:35:15;2.35;;;0.98;;
14019;SDS011;7085;51.428;6.796;2023-01-08T06:37:42;2.25;;;0.70;;
14019;SDS011;7085;51.428;6.796;2023-01-08T06:40:09;4.07;;;1.45;;
14019;SDS011;7085;51.428;6.796;2023-01-08T06:42:38;3.53;;;0.70;;
14019;SDS011;7085;51.428;6.796;2023-01-08T06:45:05;1.60;;;0.73;;
14019;SDS011;7085;51.428;6.796;2023-01-08T06:47:33;1.90;;;0.93;;
14019;SDS011;7085;51.428;6.796;2023-01-08T06:50:00;3.67;;;1.00;;
14019;SDS011;7085;51.428;6.796;2023-01-08T06:52:27;2.08;;;0.80;;
14019;SDS011;7085;51.428;6.796;2023-01-08T06:54:54;0.75;;;0.68;;
14019;SDS011;7085;51.428;6.796;2023-01-08T06:57:21;3.40;;;1.00;;
14019;SDS011;7085;51.428;6.796;2023-01-08T06:59:49;1.02;;;0.60;;
14019;SDS011;7085;51.428;6.796;2023-01-08T07:02:17;1.23;;;0.88;;
14019;SDS011;7085;51.428;6.796;2023-01-08T07:04:44;1.00;;;0.90;;
14019;SDS011;7085;51.428;6.796;2023-01-08T07:07:11;2.75;;;0.80;;
14019;SDS011;7085;51.428;6.796;2023-01-08T07:09:39;1.85;;;0.60;;
14019;SDS011;7085;51.428;6.796;2023-01-08T07:12:06;1.95;;;1.00;;
14019;SDS011;7085;51.428;6.796;2023-01-08T07:14:34;2.35;;;0.80;;
14019;SDS011;7085;51.428;6.796;2023-01-08T07:17:02;2.47;;;1.33;;
14019;SDS011;7085;51.428;6.796;2023-01-08T07:19:29;2.97;;;1.60;;
14019;SDS011;7085;51.428;6.796;2023-01-08T07:21:56;2.85;;;1.60;;
14019;SDS011;7085;51.428;6.796;2023-01-08T07:24:23;1.67;;;1.58;;
14019;SDS011;7085;51.428;6.796;2023-01-08T07:26:50;2.05;;;1.38;;
14019;SDS011;7085;51.428;6.796;2023-01-08T07:29:17;1.70;;;1.10;;
14019;SDS011;7085;51.428;6.796;2023-01-08T07:31:44;1.25;;;1.10;;
14019;SDS011;7085;51.428;6.796;2023-01-08T07:34:13;1.50;;;1.02;;
14019;SDS011;7085;51.428;6.796;2023-01-08T07:36:41;0.98;;;0.65;;
14019;SDS011;7085;51.428;6.796;2023-01-08T07:39:08;2.70;;;1.10;;
14019;SDS011;7085;51.428;6.796;2023-01-08T07:41:35;1.45;;;0.95;;
14019;SDS011;7085;51.428;6.796;2023-01-08T07:44:03;1.13;;;0.63;;
14019;SDS011;7085;51.428;6.796;2023-01-08T07:46:30;1.60;;;0.60;;
14019;SDS011;7085;51.428;6.796;2023-01-08T07:48:57;0.70;;;0.57;;
14019;SDS011;7085;51.428;6.796;2023-01-08T07:51:25;1.17;;;0.55;;
14019;SDS011;7085;51.428;6.796;2023-01-08T07:53:53;1.50;;;0.80;;
14019;SDS011;7085;51.428;6.796;2023-01-08T07:56:22;3.08;;;0.73;;
14019;SDS011;7085;51.428;6.796;2023-01-08T07:58:50;0.95;;;0.50;;
14019;SDS011;7085;51.428;6.796;2023-01-08T08:01:17;1.95;;;0.70;;
14019;SDS011;7085;51.428;6.796;2023-01-08T08:03:44;3.90;;;0.80;;
14019;SDS011;7085;51.428;6.796;2023-01-08T08:06:11;1.45;;;0.77;;
14019;SDS011;7085;51.428;6.796;2023-01-08T08:08:39;2.08;;;0.80;;
14019;SDS011;7085;51.428;6.796;2023-01-08T08:11:06;1.50;;;0.47;;
14019;SDS011;7085;51.428;6.796;2023-01-08T08:13:33;2.95;;;0.90;;
14019;SDS011;7085;51.428;6.796;2023-01-08T08:16:01;2.17;;;0.98;;
14019;SDS011;7085;51.428;6.796;2023-01-08T08:18:28;2.35;;;0.93;;
14019;SDS011;7085;51.428;6.796;2023-01-08T08:20:55;3.60;;;1.10;;
14019;SDS011;7085;51.428;6.796;2023-01-08T08:23:22;2.63;;;0.80;;
14019;SDS011;7085;51.428;6.796;2023-01-08T08:25:50;1.40;;;0.65;;
14019;SDS011;7085;51.428;6.796;2023-01-08T08:28:17;2.83;;;0.82;;
14019;SDS011;7085;51.428;6.796;2023-01-08T08:30:44;2.33;;;0.77;;
14019;SDS011;7085;51.428;6.796;2023-01-08T08:33:12;3.63;;;0.60;;
14019;SDS011;7085;51.428;6.796;2023-01-08T08:35:39;1.38;;;0.65;;
14019;SDS011;7085;51.428;6.796;2023-01-08T08:38:06;2.35;;;0.70;;
14019;SDS011;7085;51.428;6.796;2023-01-08T08:40:33;3.80;;;1.20;;
14019;SDS011;7085;51.428;6.796;2023-01-08T08:43:02;2.35;;;0.80;;
14019;SDS011;7085;51.428;6.796;2023-01-08T08:45:29;4.50;;;1.13;;
14019;SDS011;7085;51.428;6.796;2023-01-08T08:47:57;2.38;;;1.02;;
14019;SDS011;7085;51.428;6.796;2023-01-08T08:50:24;6.90;;;2.03;;
14019;SDS011;7085;51.428;6.796;2023-01-08T08:52:51;3.22;;;2.33;;
14019;SDS011;7085;51.428;6.796;2023-01-08T08:55:18;3.47;;;2.30;;
14019;SDS011;7085;51.428;6.796;2023-01-08T08:57:45;4.10;;;2.53;;
14019;SDS011;7085;51.428;6.796;2023-01-08T09:00:15;2.00;;;1.38;;
14019;SDS011;7085;51.428;6.796;2023-01-08T09:02:42;3.05;;;1.30;;
14019;SDS011;7085;51.428;6.796;2023-01-08T09:05:09;3.60;;;1.25;;
14019;SDS011;7085;51.428;6.796;2023-01-08T09:07:36;3.97;;;1.40;;
14019;SDS011;7085;51.428;6.796;2023-01-08T09:10:03;6.43;;;2.45;;
14019;SDS011;7085;51.428;6.796;2023-01-08T09:12:31;4.22;;;3.05;;
14019;SDS011;7085;51.428;6.796;2023-01-08T09:14:58;3.67;;;2.58;;
14019;SDS011;7085;51.428;6.796;2023-01-08T09:17:26;3.25;;;2.42;;
14019;SDS011;7085;51.428;6.796;2023-01-08T09:19:53;3.72;;;1.60;;
14019;SDS011;7085;51.428;6.796;2023-01-08T09:22:20;4.63;;;1.30;;
14019;SDS011;7085;51.428;6.796;2023-01-08T09:24:47;6.35;;;1.17;;
14019;SDS011;7085;51.428;6.796;2023-01-08T09:27:16;4.32;;;1.10;;
14019;SDS011;7085;51.428;6.796;2023-01-08T09:29:45;4.70;;;1.40;;
14019;SDS011;7085;51.428;6.796;2023-01-08T09:32:12;3.47;;;0.75;;
14019;SDS011;7085;51.428;6.796;2023-01-08T09:34:41;6.88;;;1.42;;
14019;SDS011;7085;51.428;6.796;2023-01-08T09:37:08;3.95;;;1.88;;
14019;SDS011;7085;51.428;6.796;2023-01-08T09:39:35;4.15;;;1.23;;
14019;SDS011;7085;51.428;6.796;2023-01-08T09:42:11;5.55;;;1.10;;
14019;SDS011;7085;51.428;6.796;2023-01-08T09:44:40;2.85;;;1.15;;
14019;SDS011;7085;51.428;6.796;2023-01-08T09:47:14;3.30;;;2.45;;
14019;SDS011;7085;51.428;6.796;2023-01-08T09:49:44;4.65;;;1.52;;
14019;SDS011;7085;51.428;6.796;2023-01-08T09:52:12;4.82;;;2.10;;
14019;SDS011;7085;51.428;6.796;2023-01-08T09:54:40;5.38;;;1.33;;
14019;SDS011;7085;51.428;6.796;2023-01-08T09:57:09;2.20;;;1.17;;
14019;SDS011;7085;51.428;6.796;2023-01-08T09:59:36;3.00;;;1.08;;
14019;SDS011;7085;51.428;6.796;2023-01-08T10:02:08;2.47;;;1.05;;
14019;SDS011;7085;51.428;6.796;2023-01-08T10:04:36;3.42;;;1.30;;
14019;SDS011;7085;51.428;6.796;2023-01-08T10:07:10;4.55;;;1.67;;
14019;SDS011;7085;51.428;6.796;2023-01-08T10:09:39;1.67;;;1.20;;
14019;SDS011;7085;51.428;6.796;2023-01-08T10:12:08;4.07;;;1.00;;
14019;SDS011;7085;51.428;6.796;2023-01-08T10:14:38;2.50;;;1.48;;
14019;SDS011;7085;51.428;6.796;2023-01-08T10:17:13;3.70;;;1.50;;
14019;SDS011;7085;51.428;6.796;2023-01-08T10:19:42;5.45;;;1.50;;
14019;SDS011;7085;51.428;6.796;2023-01-08T10:22:14;4.03;;;1.08;;
14019;SDS011;7085;51.428;6.796;2023-01-08T10:24:41;4.28;;;1.58;;
14019;SDS011;7085;51.428;6.796;2023-01-08T10:27:10;3.53;;;1.20;;
14019;SDS011;7085;51.428;6.796;2023-01-08T10:29:39;4.70;;;1.55;;
14019;SDS011;7085;51.428;6.796;2023-01-08T10:32:07;6.50;;;1.52;;
14019;SDS011;7085;51.428;6.796;2023-01-08T10:34:38;6.70;;;1.70;;
14019;SDS011;7085;51.428;6.796;2023-01-08T10:37:14;4.07;;;1.00;;
14019;SDS011;7085;51.428;6.796;2023-01-08T10:39:43;4.63;;;1.00;;
14019;SDS011;7085;51.428;6.796;2023-01-08T10:42:11;1.65;;;0.85;;
14019;SDS011;7085;51.428;6.796;2023-01-08T10:44:43;3.55;;;1.02;;
14019;SDS011;7085;51.428;6.796;2023-01-08T10:47:12;2.50;;;0.95;;
14019;SDS011;7085;51.428;6.796;2023-01-08T10:49:42;2.75;;;0.93;;
14019;SDS011;7085;51.428;6.796;2023-01-08T10:52:22;4.53;;;1.50;;
14019;SDS011;7085;51.428;6.796;2023-01-08T10:54:51;2.70;;;1.20;;
14019;SDS011;7085;51.428;6.796;2023-01-08T10:57:22;5.45;;;1.67;;
14019;SDS011;7085;51.428;6.796;2023-01-08T10:59:50;5.35;;;2.17;;
14019;SDS011;7085;51.428;6.796;2023-01-08T11:02:21;7.60;;;3.95;;
14019;SDS011;7085;51.428;6.796;2023-01-08T11:04:50;3.63;;;2.33;;
14019;SDS011;7085;51.428;6.796;2023-01-08T11:07:19;4.43;;;1.40;;
14019;SDS011;7085;51.428;6.796;2023-01-08T11:09:48;0.70;;;0.70;;
14019;SDS011;7085;51.428;6.796;2023-01-08T11:12:22;3.40;;;0.70;;
14019;SDS011;7085;51.428;6.796;2023-01-08T11:14:52;1.45;;;0.95;;
14019;SDS011;7085;51.428;6.796;2023-01-08T11:17:19;1.38;;;0.70;;
14019;SDS011;7085;51.428;6.796;2023-01-08T11:19:50;1.73;;;0.85;;
14019;SDS011;7085;51.428;6.796;2023-01-08T11:22:18;1.27;;;0.77;;
14019;SDS011;7085;51.428;6.796;2023-01-08T11:24:45;2.10;;;1.10;;
14019;SDS011;7085;51.428;6.796;2023-01-08T11:27:15;2.95;;;0.70;;
14019;SDS011;7085;51.428;6.796;2023-01-08T11:29:42;2.85;;;1.00;;
14019;SDS011;7085;51.428;6.796;2023-01-08T11:32:17;3.90;;;1.10;;
14019;SDS011;7085;51.428;6.796;2023-01-08T11:34:49;2.60;;;1.20;;
14019;SDS011;7085;51.428;6.796;2023-01-08T11:37:18;1.65;;;0.90;;
14019;SDS011;7085;51.428;6.796;2023-01-08T11:39:46;2.53;;;1.08;;
14019;SDS011;7085;51.428;6.796;2023-01-08T11:45:00;2.95;;;0.98;;
14019;SDS011;7085;51.428;6.796;2023-01-08T11:47:33;3.15;;;1.05;;
14019;SDS011;7085;51.428;6.796;2023-01-08T11:50:08;2.35;;;0.88;;
14019;SDS011;7085;51.428;6.796;2023-01-08T11:52:40;2.15;;;0.90;;
14019;SDS011;7085;51.428;6.796;2023-01-08T11:55:23;4.13;;;1.55;;
14019;SDS011;7085;51.428;6.796;2023-01-08T11:57:57;2.20;;;1.13;;
14019;SDS011;7085;51.428;6.796;2023-01-08T12:00:40;2.85;;;1.73;;
14019;SDS011;7085;51.428;6.796;2023-01-08T12:03:14;2.42;;;1.20;;
14019;SDS011;7085;51.428;6.796;2023-01-08T12:05:43;3.17;;;1.55;;
14019;SDS011;7085;51.428;6.796;2023-01-08T12:08:15;3.45;;;1.40;;
14019;SDS011;7085;51.428;6.796;2023-01-08T12:10:48;5.68;;;2.90;;
14019;SDS011;7085;51.428;6.796;2023-01-08T12:13:20;5.40;;;2.25;;
14019;SDS011;7085;51.428;6.796;2023-01-08T12:15:52;3.90;;;1.00;;
14019;SDS011;7085;51.428;6.796;2023-01-08T12:21:08;1.10;;;1.00;;
14019;SDS011;7085;51.428;6.796;2023-01-08T12:23:40;1.07;;;0.63;;
14019;SDS011;7085;51.428;6.796;2023-01-08T12:26:16;1.77;;;0.50;;
14019;SDS011;7085;51.428;6.796;2023-01-08T12:28:52;0.47;;;0.40;;
14019;SDS011;7085;51.428;6.796;2023-01-08T12:31:29;0.50;;;0.43;;
14019;SDS011;7085;51.428;6.796;2023-01-08T12:33:59;0.80;;;0.60;;
14019;SDS011;7085;51.428;6.796;2023-01-08T12:36:31;0.70;;;0.40;;
14019;SDS011;7085;51.428;6.796;2023-01-08T12:39:02;0.80;;;0.57;;
14019;SDS011;7085;51.428;6.796;2023-01-08T12:41:30;1.97;;;0.77;;
14019;SDS011;7085;51.428;6.796;2023-01-08T12:43:58;1.03;;;0.50;;
14019;SDS011;7085;51.428;6.796;2023-01-08T12:46:27;0.67;;;0.47;;
14019;SDS011;7085;51.428;6.796;2023-01-08T12:48:56;1.98;;;0.70;;
14019;SDS011;7085;51.428;6.796;2023-01-08T12:51:25;0.77;;;0.52;;
14019;SDS011;7085;51.428;6.796;2023-01-08T12:53:55;0.67;;;0.67;;
14019;SDS011;7085;51.428;6.796;2023-01-08T12:56:25;0.60;;;0.60;;
14019;SDS011;7085;51.428;6.796;2023-01-08T12:59:03;0.80;;;0.63;;
14019;SDS011;7085;51.428;6.796;2023-01-08T13:01:35;1.97;;;0.83;;
14019;SDS011;7085;51.428;6.796;2023-01-08T13:04:05;0.60;;;0.60;;
14019;SDS011;7085;51.428;6.796;2023-01-08T13:06:33;1.67;;;0.73;;
14019;SDS011;7085;51.428;6.796;2023-01-08T13:09:00;1.33;;;0.80;;
14019;SDS011;7085;51.428;6.796;2023-01-08T13:11:28;3.30;;;0.90;;
14019;SDS011;7085;51.428;6.796;2023-01-08T13:13:59;1.07;;;0.67;;
14019;SDS011;7085;51.428;6.796;2023-01-08T13:16:27;2.43;;;0.70;;
14019;SDS011;7085;51.428;6.796;2023-01-08T13:18:56;0.63;;;0.63;;
14019;SDS011;7085;51.428;6.796;2023-01-08T13:21:34;0.97;;;0.60;;
14019;SDS011;7085;51.428;6.796;2023-01-08T13:24:03;1.63;;;1.00;;
14019;SDS011;7085;51.428;6.796;2023-01-08T13:26:31;1.80;;;0.70;;
14019;SDS011;7085;51.428;6.796;2023-01-08T13:29:06;1.35;;;0.50;;
14019;SDS011;7085;51.428;6.796;2023-01-08T13:31:37;1.90;;;0.88;;
14019;SDS011;7085;51.428;6.796;2023-01-08T13:34:17;1.57;;;0.83;;
14019;SDS011;7085;51.428;6.796;2023-01-08T13:36:54;4.38;;;0.40;;
14019;SDS011;7085;51.428;6.796;2023-01-08T13:39:22;2.28;;;0.82;;
14019;SDS011;7085;51.428;6.796;2023-01-08T13:41:58;1.80;;;0.77;;
14019;SDS011;7085;51.428;6.796;2023-01-08T13:44:26;3.05;;;0.80;;
14019;SDS011;7085;51.428;6.796;2023-01-08T13:46:54;2.05;;;0.82;;
14019;SDS011;7085;51.428;6.796;2023-01-08T13:49:22;2.00;;;0.93;;
14019;SDS011;7085;51.428;6.796;2023-01-08T13:51:52;1.10;;;0.50;;
14019;SDS011;7085;51.428;6.796;2023-01-08T13:54:22;1.90;;;0.70;;
14019;SDS011;7085;51.428;6.796;2023-01-08T13:56:51;0.90;;;0.70;;
14019;SDS011;7085;51.428;6.796;2023-01-08T13:59:24;2.50;;;0.63;;
14019;SDS011;7085;51.428;6.796;2023-01-08T14:01:53;0.70;;;0.67;;
14019;SDS011;7085;51.428;6.796;2023-01-08T14:04:21;0.73;;;0.65;;
14019;SDS011;7085;51.428;6.796;2023-01-08T14:06:48;0.80;;;0.77;;
14019;SDS011;7085;51.428;6.796;2023-01-08T14:09:18;1.83;;;0.85;;
14019;SDS011;7085;51.428;6.796;2023-01-08T14:11:47;0.70;;;0.70;;
14019;SDS011;7085;51.428;6.796;2023-01-08T14:14:16;1.23;;;0.98;;
14019;SDS011;7085;51.428;6.796;2023-01-08T14:16:43;1.52;;;0.52;;
14019;SDS011;7085;51.428;6.796;2023-01-08T14:19:12;1.58;;;0.80;;
14019;SDS011;7085;51.428;6.796;2023-01-08T14:21:44;0.50;;;0.50;;
14019;SDS011;7085;51.428;6.796;2023-01-08T14:24:12;1.23;;;0.73;;
14019;SDS011;7085;51.428;6.796;2023-01-08T14:26:41;2.03;;;0.80;;
14019;SDS011;7085;51.428;6.796;2023-01-08T14:29:12;0.90;;;0.60;;
14019;SDS011;7085;51.428;6.796;2023-01-08T14:31:44;1.60;;;0.60;;
14019;SDS011;7085;51.428;6.796;2023-01-08T14:34:11;0.93;;;0.52;;
14019;SDS011;7085;51.428;6.796;2023-01-08T14:36:39;0.60;;;0.60;;
14019;SDS011;7085;51.428;6.796;2023-01-08T14:39:09;0.90;;;0.40;;
14019;SDS011;7085;51.428;6.796;2023-01-08T14:41:36;1.27;;;0.77;;
14019;SDS011;7085;51.428;6.796;2023-01-08T14:44:19;1.40;;;0.80;;
14019;SDS011;7085;51.428;6.796;2023-01-08T14:46:47;0.65;;;0.30;;
14019;SDS011;7085;51.428;6.796;2023-01-08T14:49:17;1.48;;;1.00;;
14019;SDS011;7085;51.428;6.796;2023-01-08T14:51:46;1.20;;;0.50;;
14019;SDS011;7085;51.428;6.796;2023-01-08T14:54:14;0.97;;;0.40;;
14019;SDS011;7085;51.428;6.796;2023-01-08T14:56:44;0.93;;;0.77;;
14019;SDS011;7085;51.428;6.796;2023-01-08T14:59:14;0.50;;;0.50;;
14019;SDS011;7085;51.428;6.796;2023-01-08T15:01:42;1.73;;;0.70;;
14019;SDS011;7085;51.428;6.796;2023-01-08T15:04:13;1.90;;;0.93;;
14019;SDS011;7085;51.428;6.796;2023-01-08T15:06:41;2.20;;;0.70;;
14019;SDS011;7085;51.428;6.796;2023-01-08T15:09:14;1.73;;;0.80;;
14019;SDS011;7085;51.428;6.796;2023-01-08T15:11:50;1.65;;;0.70;;
14019;SDS011;7085;51.428;6.796;2023-01-08T15:14:19;1.53;;;0.80;;